Lagos, Nigeria
Current Conditions -  °F | °C
As of 5:09 PM on Saturday 25 Oct 2014 (Local Time) from DXXX Reporting Station
Thunderstorm Thunderstorm  
Wind Chill: 24°   Ceiling: 5000
Heat Index: 24°   Visibility: 4mi
Dew Point: 24°   Wind: 10mph
Humidity: 100%   Direction: 110°ESE
Pressure: 29.83"   Gusts: NA
Location:  6.45°N, 3.47°E
Report Text: DXXX 251609Z 11009KT 080V170 6000 -TSRA SCT010 FEW016CB OVC050 24/24 Q1010 NOSIG
Loading
Personal Weather Stations






























Interactive Weather Map
Tropical Storm Tracking
New forecast layout! Learn more

10-Day Weather Forecast

Advertisements
Track Severe Weather on mobile